createdAt,value
2019-04-23T00:02:39.503Z,8.58
2019-04-23T00:05:08.304Z,7.58
2019-04-23T00:10:19.266Z,5.83
2019-04-23T00:15:12.009Z,8.18
2019-04-23T00:17:41.914Z,6.50
2019-04-23T00:20:15.808Z,7.72
2019-04-23T00:22:51.762Z,7.87
2019-04-23T00:25:45.527Z,8.55
2019-04-23T00:28:06.697Z,8.65
2019-04-23T00:33:05.329Z,5.75
2019-04-23T00:35:38.923Z,6.83
2019-04-23T00:38:13.965Z,8.30
2019-04-23T00:40:40.739Z,8.00
2019-04-23T00:43:09.003Z,6.58
2019-04-23T00:45:44.251Z,7.20
2019-04-23T00:48:14.905Z,6.47
2019-04-23T00:50:48.059Z,7.33
2019-04-23T00:53:10.979Z,8.35
2019-04-23T00:55:44.747Z,7.80
2019-04-23T00:58:16.875Z,6.10
2019-04-23T01:03:15.436Z,6.97
2019-04-23T01:05:41.068Z,7.87
2019-04-23T01:10:59.804Z,6.28
2019-04-23T01:13:32.645Z,5.85
2019-04-23T01:15:52.370Z,5.90
2019-04-23T01:18:38.058Z,5.67
2019-04-23T01:20:53.458Z,5.80
2019-04-23T01:23:40.447Z,5.80
2019-04-23T01:26:26.541Z,6.15
2019-04-23T01:29:01.608Z,6.35
2019-04-23T01:31:47.931Z,4.67
2019-04-23T01:33:59.450Z,6.78
2019-04-23T01:36:32.712Z,5.05
2019-04-23T01:39:03.699Z,5.80
2019-04-23T01:41:33.326Z,5.33
2019-04-23T01:43:54.895Z,6.95
2019-04-23T01:46:35.559Z,5.40
2019-04-23T01:49:09.543Z,6.25
2019-04-23T01:51:42.350Z,5.65
2019-04-23T01:54:06.945Z,4.87
2019-04-23T01:56:36.047Z,6.08
2019-04-23T02:01:43.290Z,6.17
2019-04-23T02:04:10.120Z,7.00
2019-04-23T02:06:38.643Z,6.10
2019-04-23T02:09:10.981Z,4.50
2019-04-23T02:11:37.803Z,4.55
2019-04-23T02:14:18.263Z,4.30
2019-04-23T02:22:01.127Z,5.87
2019-04-23T02:24:39.727Z,5.90
2019-04-23T02:26:57.551Z,5.62
2019-04-23T02:29:43.527Z,5.42
2019-04-23T02:32:09.099Z,4.33
2019-04-23T02:37:16.001Z,5.25
2019-04-23T02:39:55.404Z,5.58
2019-04-23T02:42:30.149Z,4.85
2019-04-23T02:44:38.999Z,5.50
2019-04-23T02:47:17.338Z,3.85
2019-04-23T02:50:01.521Z,5.70
2019-04-23T02:52:18.280Z,5.25
2019-04-23T02:54:56.714Z,5.10
2019-04-23T03:07:22.302Z,5.50
2019-04-23T03:12:27.229Z,5.03
2019-04-23T03:17:15.028Z,5.28
2019-04-23T03:20:10.686Z,4.80
2019-04-23T03:22:42.019Z,4.30
2019-04-23T03:25:05.322Z,5.03
2019-04-23T03:27:37.214Z,5.12
2019-04-23T03:30:06.117Z,5.42
2019-04-23T03:40:07.712Z,4.70
2019-04-23T03:47:37.601Z,5.20
2019-04-23T03:50:15.331Z,4.15
2019-04-23T03:57:52.263Z,5.25
2019-04-23T04:00:35.241Z,5.00
2019-04-23T04:05:27.297Z,5.25
2019-04-23T04:08:02.418Z,5.17
2019-04-23T04:12:41.431Z,3.52
2019-04-23T04:15:33.233Z,4.80
2019-04-23T04:17:50.304Z,4.00
2019-04-23T04:20:29.259Z,3.75
2019-04-23T04:25:26.982Z,5.20
2019-04-23T04:30:25.388Z,5.17
2019-04-23T04:32:56.556Z,4.75
2019-04-23T04:43:06.734Z,5.10
2019-04-23T04:47:44.547Z,4.42
2019-04-23T04:50:14.979Z,4.92
2019-04-23T04:58:02.925Z,4.78
2019-04-23T05:00:32.939Z,4.72
2019-04-23T05:03:22.160Z,4.42
2019-04-23T05:05:58.337Z,5.37
2019-04-23T05:10:34.682Z,5.00
2019-04-23T05:13:11.788Z,4.08
2019-04-23T05:15:25.778Z,3.62
2019-04-23T05:23:15.816Z,5.65
2019-04-23T05:25:42.915Z,6.15
2019-04-23T05:28:12.471Z,4.62
2019-04-23T05:33:13.051Z,3.87
2019-04-23T05:36:04.307Z,3.00
2019-04-23T05:38:18.326Z,5.12
2019-04-23T05:40:49.808Z,6.37
2019-04-23T05:43:12.638Z,6.78
2019-04-23T05:45:39.992Z,7.62
2019-04-23T05:50:52.725Z,6.95
2019-04-23T05:53:18.941Z,5.55
2019-04-23T05:55:51.515Z,6.33
2019-04-23T06:00:58.107Z,4.62
2019-04-23T06:06:01.201Z,5.58
2019-04-23T06:08:26.928Z,5.42
2019-04-23T06:10:57.139Z,5.53
2019-04-23T06:13:26.930Z,5.45
2019-04-23T06:15:50.372Z,5.67
2019-04-23T06:20:55.526Z,7.50
2019-04-23T06:23:30.265Z,7.03
2019-04-23T06:28:27.608Z,5.30
2019-04-23T06:33:31.019Z,5.30
2019-04-23T06:35:58.363Z,4.08
2019-04-23T06:38:40.169Z,4.33
2019-04-23T06:41:00.798Z,5.85
2019-04-23T06:43:37.555Z,7.80
2019-04-23T06:46:03.630Z,6.42
2019-04-23T06:48:35.556Z,5.75
2019-04-23T06:51:07.942Z,7.33
2019-04-23T06:53:30.674Z,4.45
2019-04-23T06:56:06.730Z,6.40
2019-04-23T07:01:08.209Z,5.22
2019-04-23T07:03:38.338Z,6.45
2019-04-23T07:16:12.865Z,7.55
2019-04-23T07:18:43.515Z,6.12
2019-04-23T07:21:18.336Z,8.70
2019-04-23T07:23:54.545Z,7.20
2019-04-23T07:26:26.053Z,6.62
2019-04-23T07:28:49.812Z,5.87
2019-04-23T07:31:24.265Z,4.83
2019-04-23T07:33:54.722Z,7.62
2019-04-23T07:36:24.336Z,6.33
2019-04-23T07:41:32.606Z,10.90
2019-04-23T07:44:14.187Z,9.05
2019-04-23T07:46:40.762Z,9.08
2019-04-23T07:49:06.617Z,8.45
2019-04-23T07:51:39.350Z,7.60
2019-04-23T07:54:08.046Z,6.05
2019-04-23T07:56:37.248Z,9.20
2019-04-23T07:59:16.079Z,9.30
2019-04-23T08:01:39.240Z,8.93
2019-04-23T08:04:08.533Z,8.28
2019-04-23T08:06:42.055Z,8.53
2019-04-23T08:09:08.829Z,8.18
2019-04-23T08:11:40.072Z,6.55
2019-04-23T08:14:08.644Z,5.97
2019-04-23T08:16:38.370Z,5.58
2019-04-23T08:19:14.012Z,5.80
2019-04-23T08:21:46.387Z,6.50
2019-04-23T08:24:40.840Z,7.25
2019-04-23T08:27:02.758Z,5.20
2019-04-23T08:29:43.890Z,6.25
2019-04-23T08:32:11.800Z,7.30
2019-04-23T08:37:10.751Z,7.70
2019-04-23T08:42:28.808Z,8.53
2019-04-23T08:44:44.990Z,6.42
2019-04-23T08:47:27.057Z,6.55
2019-04-23T08:52:21.549Z,7.05
2019-04-23T08:54:54.816Z,7.15
2019-04-23T08:57:15.586Z,9.25
2019-04-23T09:04:55.357Z,8.15
2019-04-23T09:07:20.563Z,7.67
2019-04-23T09:09:53.827Z,8.03
2019-04-23T09:12:27.001Z,7.72
2019-04-23T09:14:51.031Z,7.35
2019-04-23T09:20:08.546Z,8.25
2019-04-23T09:22:29.606Z,7.35
2019-04-23T09:24:48.848Z,8.03
2019-04-23T09:32:33.551Z,8.20
2019-04-23T09:35:26.048Z,9.00
2019-04-23T09:37:49.227Z,8.90
2019-04-23T09:43:08.110Z,8.08
2019-04-23T09:45:42.381Z,8.13
2019-04-23T09:48:04.365Z,7.97
2019-04-23T09:50:46.420Z,6.92
2019-04-23T09:53:24.140Z,9.00
2019-04-23T09:58:13.484Z,8.35
2019-04-23T10:03:04.960Z,9.08
2019-04-23T10:05:31.370Z,8.40
2019-04-23T10:08:02.911Z,8.55
2019-04-23T10:10:22.817Z,8.63
2019-04-23T10:12:51.743Z,8.95
2019-04-23T10:15:26.228Z,8.78
2019-04-23T10:17:52.121Z,9.55
2019-04-23T10:20:22.477Z,8.15
2019-04-23T10:22:52.602Z,7.58
2019-04-23T10:25:22.749Z,8.00
2019-04-23T10:27:57.004Z,8.38
2019-04-23T10:30:23.758Z,8.95
2019-04-23T10:32:53.645Z,8.93
2019-04-23T10:35:35.293Z,7.97
2019-04-23T10:38:02.100Z,8.48
2019-04-23T10:40:30.242Z,8.88
2019-04-23T10:42:56.087Z,8.20
2019-04-23T10:45:53.148Z,9.13
2019-04-23T10:49:25.881Z,9.90
2019-04-23T10:51:30.674Z,8.98
2019-04-23T10:54:24.706Z,9.80
2019-04-23T10:56:45.066Z,10.68
2019-04-23T10:59:12.185Z,11.22
2019-04-23T11:01:45.308Z,10.63
2019-04-23T11:04:36.012Z,8.63
2019-04-23T11:06:47.226Z,10.45
2019-04-23T11:09:34.363Z,10.53
2019-04-23T11:11:53.668Z,9.90
2019-04-23T11:14:25.781Z,10.05
2019-04-23T11:17:07.677Z,10.20
2019-04-23T11:19:25.717Z,8.55
2019-04-23T11:22:04.321Z,9.20
2019-04-23T11:26:55.871Z,9.93
2019-04-23T11:32:31.715Z,11.10
2019-04-23T11:34:47.867Z,9.28
2019-04-23T11:37:12.660Z,10.43
2019-04-23T11:39:32.436Z,11.25
2019-04-23T11:44:40.102Z,10.13
2019-04-23T11:47:08.616Z,10.95
2019-04-23T11:52:19.225Z,9.43
2019-04-23T11:54:30.623Z,10.20
2019-04-23T11:57:22.259Z,10.48
2019-04-23T12:02:05.419Z,9.65
2019-04-23T12:04:48.017Z,10.13
2019-04-23T12:07:18.732Z,10.32
2019-04-23T12:12:23.910Z,10.68
2019-04-23T12:14:51.297Z,10.35
2019-04-23T12:20:00.107Z,9.53
2019-04-23T12:25:06.540Z,10.08
2019-04-23T12:27:30.567Z,10.45
2019-04-23T12:29:52.464Z,12.15
2019-04-23T12:37:40.699Z,11.65
2019-04-23T12:40:15.714Z,11.60
2019-04-23T12:42:58.699Z,12.25
2019-04-23T12:45:25.100Z,11.88
2019-04-23T12:47:49.899Z,11.65
2019-04-23T12:50:38.322Z,12.18
2019-04-23T12:52:47.668Z,10.15
2019-04-23T12:57:46.919Z,12.78
2019-04-23T13:00:22.471Z,12.65
2019-04-23T13:02:48.490Z,14.33
2019-04-23T13:05:15.828Z,14.10
2019-04-23T13:07:54.041Z,11.88
2019-04-23T13:10:22.279Z,10.72
2019-04-23T13:12:50.313Z,11.45
2019-04-23T13:15:22.727Z,12.50
2019-04-23T13:17:54.273Z,12.90
2019-04-23T13:20:23.578Z,12.25
2019-04-23T13:22:55.717Z,13.55
2019-04-23T13:25:53.909Z,13.55
2019-04-23T13:30:46.205Z,13.53
2019-04-23T13:33:26.774Z,14.60
2019-04-23T13:35:53.451Z,12.45
2019-04-23T13:40:57.186Z,14.73
2019-04-23T13:43:29.957Z,13.25
2019-04-23T13:48:15.104Z,12.98
2019-04-23T13:53:38.337Z,13.53
2019-04-23T13:55:53.215Z,11.65
2019-04-23T13:58:23.231Z,13.28
2019-04-23T14:03:30.247Z,14.10
2019-04-23T14:06:18.128Z,13.15
2019-04-23T14:08:47.302Z,13.95
2019-04-23T14:11:19.728Z,14.20
2019-04-23T14:13:55.272Z,14.58
2019-04-23T14:21:22.001Z,13.83
2019-04-23T14:31:19.884Z,15.50
2019-04-23T14:33:58.392Z,13.32
2019-04-23T14:36:19.471Z,13.85
2019-04-23T14:43:56.042Z,14.90
2019-04-23T14:48:51.711Z,15.58
2019-04-23T14:53:48.113Z,15.75
2019-04-23T14:56:20.144Z,16.00
2019-04-23T15:03:50.620Z,16.00
2019-04-23T15:06:37.319Z,16.37
2019-04-23T15:11:36.906Z,15.23
2019-04-23T15:14:03.548Z,15.00
2019-04-23T15:16:31.604Z,15.72
2019-04-23T15:21:53.740Z,16.70
2019-04-23T15:24:14.131Z,17.25
2019-04-23T15:28:55.725Z,15.85
2019-04-23T15:34:14.151Z,17.20
2019-04-23T15:44:14.881Z,17.02
2019-04-23T15:46:47.457Z,16.27
2019-04-23T15:51:54.188Z,15.85
2019-04-23T15:54:22.541Z,16.82
2019-04-23T15:56:50.053Z,16.95
2019-04-23T16:01:39.495Z,18.50
2019-04-23T16:03:51.711Z,16.23
2019-04-23T16:06:24.565Z,18.15
2019-04-23T16:09:15.485Z,17.15
2019-04-23T16:11:59.602Z,18.02
2019-04-23T16:16:51.593Z,16.90
2019-04-23T16:22:04.560Z,17.87
2019-04-23T16:24:26.670Z,18.00
2019-04-23T16:27:09.309Z,16.60
2019-04-23T16:32:14.889Z,15.05
2019-04-23T16:34:59.386Z,16.75
2019-04-23T16:37:24.966Z,16.93
2019-04-23T16:39:56.563Z,17.85
2019-04-23T16:42:24.850Z,17.95
2019-04-23T16:45:11.041Z,17.02
2019-04-23T16:47:26.440Z,17.90
2019-04-23T16:52:24.478Z,16.52
2019-04-23T16:54:54.836Z,17.90
2019-04-23T16:57:29.098Z,15.55
2019-04-23T17:02:24.614Z,14.90
2019-04-23T17:05:02.886Z,16.48
2019-04-23T17:07:21.067Z,16.67
2019-04-23T17:10:08.114Z,17.32
2019-04-23T17:12:16.617Z,17.23
2019-04-23T17:15:02.748Z,18.25
2019-04-23T17:17:27.370Z,17.40
2019-04-23T17:20:02.689Z,17.35
2019-04-23T17:22:24.685Z,18.90
2019-04-23T17:25:10.219Z,17.82
2019-04-23T17:27:29.790Z,18.27
2019-04-23T17:30:09.281Z,18.07
2019-04-23T17:32:35.787Z,16.62
2019-04-23T17:35:17.395Z,15.75
2019-04-23T17:37:40.997Z,16.23
2019-04-23T17:40:17.695Z,18.77
2019-04-23T17:42:52.610Z,17.35
2019-04-23T17:48:04.072Z,18.95
2019-04-23T17:52:56.292Z,19.67
2019-04-23T17:55:22.373Z,17.52
2019-04-23T17:58:01.520Z,17.50
2019-04-23T18:00:34.916Z,19.77
2019-04-23T18:05:30.785Z,18.55
2019-04-23T18:08:05.403Z,20.17
2019-04-23T18:12:57.942Z,18.10
2019-04-23T18:15:25.795Z,16.60
2019-04-23T18:18:02.505Z,16.95
2019-04-23T18:20:56.106Z,18.82
2019-04-23T18:23:14.835Z,19.55
2019-04-23T18:25:58.055Z,19.67
2019-04-23T18:28:19.745Z,19.37
2019-04-23T18:31:10.325Z,21.35
2019-04-23T18:36:14.816Z,18.42
2019-04-23T18:41:10.777Z,20.05
2019-04-23T18:43:51.113Z,20.55
2019-04-23T18:46:35.166Z,37.15
2019-04-23T18:48:52.833Z,15.88
2019-04-23T18:51:27.072Z,17.45
2019-04-23T18:54:11.039Z,18.17
2019-04-23T18:56:29.357Z,19.55
2019-04-23T18:59:04.845Z,19.98
2019-04-23T19:04:19.555Z,16.23
2019-04-23T19:17:35.834Z,14.15
2019-04-23T19:19:40.398Z,13.98
2019-04-23T19:29:44.019Z,15.60
2019-04-23T19:32:30.031Z,13.25
2019-04-23T19:34:39.088Z,15.05
2019-04-23T19:37:43.493Z,20.17
2019-04-23T19:39:45.409Z,13.70
2019-04-23T19:44:47.503Z,15.03
2019-04-23T19:47:17.576Z,16.15
2019-04-23T19:49:45.306Z,15.18
2019-04-23T19:52:12.797Z,15.20
2019-04-23T19:57:19.013Z,12.55
2019-04-23T19:59:50.617Z,16.70
2019-04-23T20:02:37.182Z,11.53
2019-04-23T20:04:56.353Z,13.93
2019-04-23T20:12:25.933Z,16.10
2019-04-23T20:14:52.310Z,12.70
2019-04-23T20:17:37.714Z,15.90
2019-04-23T20:19:58.412Z,13.40
2019-04-23T20:25:18.866Z,12.73
2019-04-23T20:27:25.967Z,15.10
2019-04-23T20:33:36.180Z,13.13
2019-04-23T20:35:25.484Z,12.37
2019-04-23T20:38:25.643Z,10.28
2019-04-23T20:40:31.462Z,17.23
2019-04-23T20:42:57.213Z,14.47
2019-04-23T20:45:33.851Z,11.90
2019-04-23T20:48:01.662Z,11.20
2019-04-23T20:50:26.213Z,11.97
2019-04-23T20:52:51.738Z,9.65
2019-04-23T20:55:45.202Z,9.85
2019-04-23T20:58:20.888Z,14.53
2019-04-23T21:00:59.090Z,10.80
2019-04-23T21:05:50.498Z,11.50
2019-04-23T21:08:30.356Z,10.75
2019-04-23T21:10:51.810Z,10.82
2019-04-23T21:13:42.721Z,23.42
2019-04-23T21:15:54.608Z,13.48
2019-04-23T21:18:33.076Z,14.45
2019-04-23T21:23:45.446Z,11.55
2019-04-23T21:25:52.667Z,12.10
2019-04-23T21:31:16.369Z,10.65
2019-04-23T21:34:03.128Z,12.37
2019-04-23T21:39:18.262Z,11.88
2019-04-23T21:41:52.701Z,10.75
2019-04-23T21:44:18.759Z,9.68
2019-04-23T21:46:48.156Z,9.10
2019-04-23T21:49:17.783Z,7.85
2019-04-23T21:54:07.933Z,10.63
2019-04-23T21:56:44.594Z,12.30
2019-04-23T22:01:44.996Z,11.55
2019-04-23T22:06:48.003Z,10.10
2019-04-23T22:09:22.622Z,10.48
2019-04-23T22:14:16.984Z,11.25
2019-04-23T22:27:05.400Z,10.88
2019-04-23T22:29:45.090Z,13.98
2019-04-23T22:31:52.159Z,11.38
2019-04-23T22:37:07.922Z,9.28
2019-04-23T22:39:31.991Z,13.22
2019-04-23T22:44:39.840Z,13.75
2019-04-23T22:47:04.332Z,13.18
2019-04-23T22:52:16.582Z,15.55
2019-04-23T22:54:51.054Z,12.35
2019-04-23T22:57:11.630Z,14.03
2019-04-23T22:59:54.338Z,13.70
2019-04-23T23:02:26.418Z,11.80
2019-04-23T23:05:06.323Z,11.93
2019-04-23T23:07:28.828Z,13.20
2019-04-23T23:10:02.406Z,15.43
2019-04-23T23:12:31.938Z,16.17
2019-04-23T23:15:01.136Z,11.83
2019-04-23T23:17:32.579Z,12.18
2019-04-23T23:20:05.868Z,14.80
2019-04-23T23:22:27.526Z,10.45
2019-04-23T23:25:04.731Z,11.65
2019-04-23T23:27:29.645Z,14.10
2019-04-23T23:30:05.069Z,13.28
2019-04-23T23:32:31.530Z,14.63
2019-04-23T23:35:16.166Z,13.05
2019-04-23T23:37:28.193Z,13.83
2019-04-23T23:42:34.655Z,14.23
2019-04-23T23:45:10.539Z,12.55
2019-04-23T23:47:29.299Z,14.60
2019-04-23T23:50:16.230Z,15.35
2019-04-23T23:52:42.699Z,13.72
2019-04-23T23:55:07.845Z,13.55
2019-04-23T23:57:33.853Z,13.22
